Time;durP1;ratioP1;P1;durP2;ratioP2;P2;SDS_P1;SDS_P2;PMS_P1;PMS_P2;Temp;Humidity;BMP_temperature;BMP_pressure;BME280_temperature;BME280_humidity;BME280_pressure;Samples;Min_cycle;Max_cycle;Signal;HPM_P1;HPM_P2
2021/12/21 00:00:54;;;;;;;34.20;16.67;;;6.10;99.90;;;6.26;74.65;102691.00;4994894;28;20412;-75
2021/12/21 00:03:24;;;;;;;35.00;17.17;;;6.10;99.90;;;6.33;74.19;102684.25;4995176;28;20049;-76
2021/12/21 00:05:54;;;;;;;35.30;16.95;;;6.20;99.90;;;6.36;74.15;102687.03;4994965;28;20400;-75
2021/12/21 00:08:23;;;;;;;34.83;16.93;;;6.20;99.90;;;6.20;74.08;102651.34;4977693;28;20112;-82
2021/12/21 00:11:11;;;;;;;41.20;18.67;;;6.30;99.90;;;6.45;74.04;102687.41;4994871;28;20046;-75
2021/12/21 00:13:55;;;;;;;35.10;17.57;;;6.30;99.90;;;6.43;73.84;102691.69;4977598;28;20093;-76
2021/12/21 00:16:47;;;;;;;34.63;16.87;;;6.30;99.90;;;6.30;73.83;102673.63;4994024;28;20038;-76
2021/12/21 00:19:41;;;;;;;37.03;16.67;;;6.30;99.90;;;6.43;73.54;102680.31;4994557;28;20046;-70
2021/12/21 00:22:25;;;;;;;40.57;17.33;;;6.30;99.90;;;6.43;73.96;102690.81;4994480;28;20046;-71
2021/12/21 00:24:54;;;;;;;36.97;16.70;;;6.30;99.90;;;6.48;73.75;102682.28;4977383;28;20046;-71
2021/12/21 00:27:22;;;;;;;42.70;17.70;;;6.40;99.90;;;6.46;73.86;102683.06;4995003;28;20097;-71
2021/12/21 00:29:50;;;;;;;37.80;16.63;;;6.40;99.90;;;6.48;73.54;102691.91;4977301;28;20073;-71
2021/12/21 00:32:19;;;;;;;34.17;17.30;;;6.40;99.90;;;6.53;73.42;102682.47;4994611;28;20038;-71
2021/12/21 00:34:49;;;;;;;42.33;17.07;;;6.40;99.90;;;6.48;73.33;102678.75;4994343;28;20117;-71
2021/12/21 00:37:18;;;;;;;43.80;17.85;;;6.40;99.90;;;6.36;73.51;102664.28;4994472;28;20066;-71
2021/12/21 00:39:46;;;;;;;37.33;17.23;;;6.40;99.90;;;6.43;73.49;102669.81;4994145;28;20035;-71
2021/12/21 00:42:15;;;;;;;40.47;17.03;;;6.40;99.90;;;6.40;73.75;102675.81;4994191;28;20408;-71
2021/12/21 00:44:43;;;;;;;44.33;16.70;;;6.30;99.90;;;6.35;73.68;102667.72;4994152;28;20062;-71
2021/12/21 00:47:14;;;;;;;38.97;18.20;;;6.30;99.90;;;6.38;73.58;102665.25;4994039;28;20054;-71
2021/12/21 00:49:45;;;;;;;34.65;16.92;;;6.30;99.90;;;6.16;73.55;102631.03;4994456;28;20141;-71
2021/12/21 00:52:16;;;;;;;42.03;16.67;;;6.30;99.90;;;6.22;73.47;102638.25;4994084;28;20045;-71
2021/12/21 00:54:44;;;;;;;38.17;18.00;;;6.30;99.90;;;6.36;73.54;102664.28;4994129;28;20047;-71
2021/12/21 00:57:13;;;;;;;44.10;16.17;;;6.30;99.90;;;6.31;73.76;102662.28;4976477;28;20065;-71
2021/12/21 00:59:41;;;;;;;37.53;16.90;;;6.20;99.90;;;6.23;73.77;102645.31;4993904;28;20377;-71
2021/12/21 01:02:10;;;;;;;48.80;17.13;;;6.20;99.90;;;6.26;73.88;102662.09;4994188;28;20053;-72
2021/12/21 01:04:42;;;;;;;35.30;17.80;;;6.20;99.90;;;6.28;73.65;102649.94;4992958;28;20065;-71
2021/12/21 01:07:20;;;;;;;38.80;18.37;;;6.20;99.90;;;6.26;73.80;102651.59;4993938;28;20047;-71
2021/12/21 01:10:30;;;;;;;40.13;17.77;;;6.20;99.90;;;6.20;73.44;102643.44;4994135;28;20042;-71
2021/12/21 01:13:09;;;;;;;34.45;17.10;;;6.20;99.90;;;6.26;73.91;102648.97;4993803;28;20141;-71
2021/12/21 01:15:54;;;;;;;39.23;17.50;;;6.10;99.90;;;6.24;73.64;102641.84;4976559;28;20443;-71
2021/12/21 01:18:27;;;;;;;39.00;16.63;;;6.10;99.90;;;6.20;73.73;102646.09;4993791;28;20040;-71
2021/12/21 01:21:05;;;;;;;36.00;17.67;;;6.10;99.90;;;5.45;73.49;102522.94;4994090;28;20046;-71
2021/12/21 01:26:24;;;;;;;39.53;17.27;;;6.10;99.90;;;6.15;73.88;102651.97;4971030;28;20053;-72
2021/12/21 01:29:01;;;;;;;38.70;16.67;;;6.10;99.90;;;5.91;73.89;102604.56;4993661;28;20038;-72
2021/12/21 01:31:38;;;;;;;36.63;17.13;;;6.00;99.90;;;6.06;73.80;102641.97;4993646;28;20050;-71
2021/12/21 01:34:21;;;;;;;38.60;15.97;;;6.00;99.90;;;6.05;73.87;102642.81;4994203;28;20043;-71
2021/12/21 01:36:55;;;;;;;39.57;17.03;;;6.00;99.90;;;5.79;73.69;102593.50;4993674;28;20062;-71
2021/12/21 01:39:54;;;;;;;38.33;17.17;;;5.90;99.90;;;6.08;73.99;102639.41;4993893;28;20047;-72
2021/12/21 01:42:36;;;;;;;35.43;16.40;;;6.00;99.90;;;6.01;73.97;102637.38;4993525;28;20053;-71
2021/12/21 01:50:38;;;;;;;31.60;17.37;;;5.90;99.90;;;5.90;74.17;102639.56;4993469;28;20492;-71
2021/12/21 01:53:06;;;;;;;41.97;17.20;;;5.80;99.90;;;5.94;74.27;102644.06;4993969;28;20046;-71
2021/12/21 01:55:35;;;;;;;38.07;18.20;;;5.80;99.90;;;5.92;74.26;102640.47;4993656;28;20042;-71
2021/12/21 01:58:05;;;;;;;36.60;16.87;;;5.80;99.90;;;5.90;74.48;102638.66;4993334;28;20038;-71
2021/12/21 02:00:33;;;;;;;36.90;17.83;;;5.80;99.90;;;5.85;74.28;102625.31;4993544;28;20054;-71
2021/12/21 02:03:02;;;;;;;43.00;17.93;;;5.80;99.90;;;5.71;74.43;102610.66;4993320;28;20034;-71
2021/12/21 02:05:31;;;;;;;39.00;16.30;;;5.70;99.90;;;5.89;74.11;102619.34;4993547;28;20057;-71
2021/12/21 02:07:59;;;;;;;36.63;17.90;;;5.80;99.90;;;5.68;74.20;102588.63;4976064;28;20054;-71
2021/12/21 02:10:29;;;;;;;37.53;17.57;;;5.70;99.90;;;5.85;73.85;102619.16;4976117;28;20444;-71
2021/12/21 02:12:58;;;;;;;33.70;16.87;;;5.70;99.90;;;5.80;73.86;102618.94;4993507;28;20432;-71
2021/12/21 02:15:28;;;;;;;37.67;17.80;;;5.70;99.90;;;5.74;74.39;102618.66;4993166;28;20396;-71
2021/12/21 02:20:59;;;;;;;44.37;18.33;;;5.60;99.90;;;5.77;74.15;102617.91;4993605;28;20038;-71
2021/12/21 02:23:32;;;;;;;43.43;17.93;;;5.70;99.90;;;5.72;74.42;102622.97;4993473;28;20046;-71
2021/12/21 02:26:22;;;;;;;42.87;17.30;;;5.60;99.90;;;5.61;74.07;102597.97;4993147;28;20447;-71
2021/12/21 02:31:47;;;;;;;37.70;17.30;;;5.60;99.90;;;5.70;74.50;102618.47;4983238;28;20066;-71
2021/12/21 02:34:19;;;;;;;39.33;17.10;;;5.60;99.90;;;5.68;74.06;102615.78;4993083;28;20042;-71
2021/12/21 02:36:52;;;;;;;32.37;16.03;;;5.60;99.90;;;5.37;74.34;102568.03;4992861;28;20054;-71
2021/12/21 02:39:21;;;;;;;34.07;16.77;;;5.60;99.90;;;5.45;74.30;102579.78;4995055;28;20053;-71
2021/12/21 02:41:50;;;;;;;34.83;16.03;;;5.60;99.90;;;5.66;74.37;102622.69;4995494;28;20046;-71
2021/12/21 02:44:19;;;;;;;36.70;16.50;;;5.60;99.90;;;5.62;74.65;102619.84;4996932;28;20073;-71
2021/12/21 02:46:48;;;;;;;31.02;15.25;;;5.50;99.90;;;5.66;74.70;102622.69;4996446;28;20416;-71
2021/12/21 02:49:18;;;;;;;36.93;17.17;;;5.50;99.90;;;5.62;74.51;102620.75;4979126;28;20104;-71
2021/12/21 02:51:49;;;;;;;34.45;16.20;;;5.50;99.90;;;5.60;74.19;102619.78;4996538;28;20046;-71
2021/12/21 02:54:20;;;;;;;31.33;15.67;;;5.50;99.90;;;5.62;74.13;102625.09;4979116;28;20054;-72
2021/12/21 02:56:48;;;;;;;34.80;16.30;;;5.50;99.90;;;5.59;74.10;102620.66;4996290;28;20053;-71
2021/12/21 02:59:17;;;;;;;33.20;16.83;;;5.50;99.90;;;5.54;74.23;102635.28;4995976;28;20054;-71
2021/12/21 03:01:45;;;;;;;34.67;16.27;;;5.50;99.90;;;5.59;74.13;102625.91;4996349;28;20101;-71
2021/12/21 03:04:14;;;;;;;34.73;16.60;;;5.40;99.90;;;4.99;74.05;102527.03;4996060;28;20431;-71
2021/12/21 03:12:33;;;;;;;32.50;15.87;;;5.40;99.90;;;5.53;74.00;102614.22;4995998;28;20108;-71
2021/12/21 03:15:01;;;;;;;30.93;14.90;;;5.40;99.90;;;5.49;74.10;102613.19;4995834;28;20055;-71
2021/12/21 03:17:30;;;;;;;31.80;15.67;;;5.40;99.90;;;5.48;74.20;102625.41;4995828;28;20066;-71
2021/12/21 03:19:58;;;;;;;37.30;15.23;;;5.40;99.90;;;5.41;73.92;102617.19;4995786;28;20053;-71
2021/12/21 03:22:26;;;;;;;32.50;15.17;;;5.30;99.90;;;5.44;74.38;102610.34;4995683;28;20046;-71
2021/12/21 03:24:56;;;;;;;35.40;15.93;;;5.30;99.90;;;5.41;74.38;102604.97;4995717;28;20459;-71
2021/12/21 03:27:25;;;;;;;39.33;17.10;;;5.30;99.90;;;5.40;74.28;102611.03;4995635;28;20046;-71
2021/12/21 03:29:53;;;;;;;36.00;16.40;;;5.30;99.90;;;5.40;74.30;102612.78;4995607;28;20046;-71
2021/12/21 03:32:21;;;;;;;34.50;15.40;;;5.30;99.90;;;5.39;74.28;102608.34;4995515;28;20104;-71
2021/12/21 03:34:50;;;;;;;34.90;17.13;;;5.30;99.90;;;5.36;74.58;102610.88;4995504;28;20053;-71
2021/12/21 03:37:19;;;;;;;30.57;14.70;;;5.20;99.90;;;5.34;74.40;102608.16;4995429;28;20054;-71
2021/12/21 03:39:50;;;;;;;28.97;15.83;;;5.30;99.90;;;5.34;74.22;102607.28;4995406;28;20104;-71
2021/12/21 03:42:19;;;;;;;32.97;16.30;;;5.30;99.90;;;5.31;74.44;102605.41;4995571;28;20046;-71
2021/12/21 03:44:48;;;;;;;35.33;16.75;;;5.30;99.90;;;5.29;74.69;102607.06;4995362;28;20113;-71
2021/12/21 03:47:17;;;;;;;34.30;16.50;;;5.30;99.90;;;5.25;74.79;102602.50;4995215;28;20723;-71
2021/12/21 03:49:55;;;;;;;30.83;15.83;;;5.20;99.90;;;5.26;74.89;102604.31;4977736;28;20065;-71
2021/12/21 03:52:26;;;;;;;34.33;15.70;;;5.20;99.90;;;5.23;74.96;102605.88;4995501;28;20121;-71
2021/12/21 03:54:57;;;;;;;30.53;15.60;;;5.20;99.90;;;5.11;74.87;102590.47;4995187;28;20447;-71
2021/12/21 03:57:27;;;;;;;36.17;15.70;;;5.20;99.90;;;5.20;74.96;102606.66;4995085;28;20488;-71
2021/12/21 03:59:56;;;;;;;32.00;15.23;;;5.20;99.90;;;5.17;75.11;102592.47;4995335;28;20146;-71
2021/12/21 04:02:27;;;;;;;30.37;16.03;;;5.20;99.90;;;5.15;74.73;102586.31;4994870;28;20042;-71
2021/12/21 04:04:57;;;;;;;35.92;16.30;;;5.10;99.90;;;5.07;75.26;102575.44;4995010;28;20042;-71
2021/12/21 04:07:27;;;;;;;29.63;15.82;;;5.10;99.90;;;4.94;74.72;102557.38;4995238;28;20471;-71
2021/12/21 04:09:56;;;;;;;34.38;16.30;;;5.10;99.90;;;5.08;74.90;102586.81;4994899;28;20485;-71
2021/12/21 04:12:24;;;;;;;30.57;15.50;;;5.00;99.90;;;5.05;75.35;102579.72;4977580;28;20603;-71
2021/12/21 04:14:56;;;;;;;37.27;16.97;;;5.00;99.90;;;5.02;75.35;102578.69;4994766;28;20092;-71
2021/12/21 04:17:25;;;;;;;36.57;16.80;;;5.00;99.90;;;5.02;75.46;102570.81;4994734;28;20100;-71
2021/12/21 04:19:53;;;;;;;33.37;16.87;;;4.90;99.90;;;4.94;75.29;102564.31;4977437;28;20088;-71
2021/12/21 04:22:22;;;;;;;34.23;16.23;;;5.00;99.90;;;4.99;75.67;102568.06;4994506;28;20096;-71
2021/12/21 04:24:50;;;;;;;35.20;16.47;;;4.90;99.90;;;5.01;75.35;102572.56;4994802;28;20441;-71
2021/12/21 04:27:19;;;;;;;33.87;16.20;;;5.00;99.90;;;5.00;75.03;102568.13;4994483;28;20092;-71
2021/12/21 04:29:47;;;;;;;32.13;16.33;;;5.00;99.90;;;4.95;75.19;102564.41;4994458;28;20069;-71
2021/12/21 04:32:17;;;;;;;35.57;16.07;;;4.90;99.90;;;4.97;74.91;102570.63;4994378;28;20572;-71
2021/12/21 04:34:45;;;;;;;36.22;15.38;;;4.90;99.90;;;4.91;75.11;102567.72;4994433;28;20046;-71
2021/12/21 04:37:17;;;;;;;27.75;15.80;;;4.90;99.90;;;4.93;75.42;102570.41;4994195;28;20054;-71
2021/12/21 04:39:51;;;;;;;33.80;15.48;;;4.80;99.90;;;4.93;75.35;102575.66;4994568;28;20105;-71
2021/12/21 04:42:20;;;;;;;29.43;16.53;;;4.90;99.90;;;4.92;75.02;102571.22;4994475;28;20049;-71
2021/12/21 04:44:48;;;;;;;38.30;17.67;;;4.90;99.90;;;4.90;75.33;102575.50;4994241;28;20066;-71
2021/12/21 04:47:18;;;;;;;28.17;14.87;;;4.80;99.90;;;4.85;75.48;102577.94;4994158;28;20054;-71
2021/12/21 04:49:46;;;;;;;30.65;16.23;;;4.70;99.90;;;4.65;75.05;102546.38;4994172;28;20085;-71
2021/12/21 04:52:15;;;;;;;31.67;16.60;;;4.80;99.90;;;4.81;75.58;102567.22;4994104;28;20487;-71
2021/12/21 04:54:43;;;;;;;30.83;15.50;;;4.70;99.90;;;4.78;75.71;102581.06;4994340;28;20054;-71
2021/12/21 04:57:12;;;;;;;34.57;16.53;;;4.70;99.90;;;4.76;75.42;102580.13;4994269;28;20088;-71
2021/12/21 04:59:40;;;;;;;33.73;15.80;;;4.70;99.90;;;4.77;75.34;102571.44;4994017;28;20117;-71
2021/12/21 05:02:09;;;;;;;31.90;16.27;;;4.70;99.90;;;4.61;75.14;102541.84;4993273;28;20038;-71
2021/12/21 05:04:39;;;;;;;35.03;15.67;;;4.70;99.90;;;4.79;75.37;102568.88;4976739;28;20649;-71
2021/12/21 05:07:07;;;;;;;36.42;16.33;;;4.70;99.90;;;4.75;75.36;102565.22;4994468;28;20050;-72
2021/12/21 05:09:42;;;;;;;35.17;16.43;;;4.70;99.90;;;4.75;75.23;102559.97;4993821;28;20054;-74
2021/12/21 05:12:13;;;;;;;35.27;16.57;;;4.70;99.90;;;4.77;74.83;102563.56;4994106;28;20092;-73
2021/12/21 05:14:41;;;;;;;32.07;15.07;;;4.70;99.90;;;4.64;75.03;102548.13;4993868;28;20396;-72
2021/12/21 05:17:10;;;;;;;28.57;15.57;;;4.70;99.90;;;4.75;75.11;102565.22;4994081;28;20042;-72
2021/12/21 05:19:40;;;;;;;35.27;15.97;;;4.70;99.90;;;4.71;75.09;102557.13;4993760;28;20512;-73
2021/12/21 05:22:08;;;;;;;37.08;17.55;;;4.70;99.90;;;4.73;75.08;102566.88;4993683;28;20551;-71
2021/12/21 05:24:37;;;;;;;28.67;15.53;;;4.60;99.90;;;4.75;74.86;102566.94;4993631;28;20542;-71
2021/12/21 05:27:07;;;;;;;28.57;15.37;;;4.70;99.90;;;4.66;75.37;102556.94;4994152;28;20046;-70
2021/12/21 05:29:35;;;;;;;33.97;17.00;;;4.60;99.90;;;4.69;75.25;102570.16;4993519;28;20061;-71
2021/12/21 05:32:05;;;;;;;35.07;15.17;;;4.60;99.90;;;4.73;74.91;102563.34;4994173;28;20451;-70
2021/12/21 05:34:34;;;;;;;;;;;4.60;99.90;;;4.70;75.02;102564.13;4994063;28;20049;-71
2021/12/21 05:37:07;;;;;;;32.10;16.07;;;4.70;99.90;;;4.68;74.72;102563.16;4993714;28;19964;-70
2021/12/21 05:39:43;;;;;;;31.40;15.10;;;4.60;99.90;;;4.71;75.08;102558.03;4993648;28;20046;-70
2021/12/21 05:42:12;;;;;;;37.20;16.57;;;4.60;99.90;;;4.61;74.67;102555.81;4993498;28;20049;-70
2021/12/21 05:44:40;;;;;;;36.70;16.77;;;4.70;99.90;;;4.65;75.05;102565.63;4993734;28;20092;-70
2021/12/21 05:47:08;;;;;;;31.83;16.57;;;4.60;99.90;;;4.66;75.02;102563.91;4993754;28;20047;-70
2021/12/21 05:49:37;;;;;;;33.83;16.20;;;4.60;99.90;;;4.61;74.85;102554.94;4993407;28;20043;-70
2021/12/21 05:52:08;;;;;;;31.47;15.90;;;4.60;99.90;;;4.62;74.69;102564.56;4993407;28;20096;-70
2021/12/21 05:54:37;;;;;;;35.77;17.03;;;4.60;99.90;;;4.15;74.91;102483.75;4993742;28;20058;-70
2021/12/21 05:57:06;;;;;;;34.73;15.63;;;4.60;99.90;;;4.57;74.68;102557.41;4993609;28;20101;-70
2021/12/21 05:59:35;;;;;;;34.00;16.17;;;4.60;99.90;;;4.59;75.17;102562.69;4993279;28;20057;-70
2021/12/21 06:02:04;;;;;;;27.57;16.07;;;4.50;99.90;;;4.43;74.61;102540.13;4993226;28;20070;-71
2021/12/21 06:04:32;;;;;;;34.53;16.57;;;4.50;99.90;;;4.39;74.59;102538.19;4993400;28;20046;-70
2021/12/21 06:07:01;;;;;;;30.07;16.33;;;4.50;99.90;;;4.00;74.50;102472.56;4993282;28;20120;-70
2021/12/21 06:09:31;;;;;;;31.57;16.27;;;4.50;99.90;;;4.51;75.01;102569.31;4993139;28;20500;-70
2021/12/21 06:12:08;;;;;;;32.47;15.63;;;4.50;99.90;;;4.47;74.72;102576.13;4993324;28;20053;-70
2021/12/21 06:15:07;;;;;;;29.40;16.60;;;4.40;99.90;;;4.48;74.89;102574.41;4996990;28;20104;-70
2021/12/21 06:25:57;;;;;;;31.53;16.67;;;4.40;99.90;;;3.62;74.85;102426.22;4994647;28;20069;-70
2021/12/21 06:28:26;;;;;;;32.90;18.77;;;4.40;99.90;;;4.41;74.46;102556.63;4996660;28;20570;-70
2021/12/21 06:30:55;;;;;;;35.17;17.33;;;4.40;99.90;;;4.39;74.83;102559.13;4996799;28;20500;-70
2021/12/21 06:33:24;;;;;;;35.77;18.50;;;4.40;99.90;;;4.14;74.89;102524.75;4997121;28;20116;-70
2021/12/21 06:35:53;;;;;;;35.27;17.13;;;4.40;99.90;;;4.32;74.58;102557.06;4996316;28;20043;-70
2021/12/21 06:38:24;;;;;;;33.93;17.13;;;4.30;99.90;;;4.36;74.89;102560.72;4995666;28;20046;-70
2021/12/21 06:40:54;;;;;;;37.88;18.95;;;4.30;99.90;;;4.36;74.92;102565.97;4996624;28;20050;-70
2021/12/21 06:43:24;;;;;;;31.00;18.10;;;4.30;99.90;;;4.36;74.78;102569.47;4979180;28;20050;-70
2021/12/21 06:46:00;;;;;;;32.90;18.73;;;4.30;99.90;;;4.35;74.92;102566.81;4996380;28;20563;-70
2021/12/21 06:51:22;;;;;;;38.57;19.60;;;4.30;99.90;;;4.27;74.50;102558.59;4996642;28;20471;-70
2021/12/21 06:53:54;;;;;;;32.70;17.90;;;4.30;99.90;;;4.33;74.49;102566.75;4996538;28;20108;-70
2021/12/21 06:56:28;;;;;;;35.50;18.90;;;4.30;99.90;;;4.20;74.72;102540.75;4996242;28;20046;-70
2021/12/21 06:58:57;;;;;;;32.53;17.90;;;4.20;99.90;;;4.25;74.13;102538.38;4996245;28;20448;-70
2021/12/21 07:01:28;;;;;;;36.97;18.10;;;4.20;99.90;;;4.29;74.32;102566.50;4996018;28;20062;-70
2021/12/21 07:03:58;;;;;;;31.83;18.77;;;4.20;99.90;;;4.25;74.25;102572.41;4996197;28;20054;-70
2021/12/21 07:06:27;;;;;;;35.35;18.05;;;4.20;99.90;;;4.20;74.22;102561.72;4996236;28;20077;-71
2021/12/21 07:09:01;;;;;;;31.77;18.20;;;4.20;99.90;;;4.18;74.35;102563.34;4995666;28;20117;-70
2021/12/21 07:11:40;;;;;;;32.90;18.80;;;4.10;99.90;;;4.07;74.27;102554.09;4995871;28;20066;-70
2021/12/21 07:19:43;;;;;;;34.37;17.93;;;3.80;99.90;;;3.92;75.28;102583.84;4996130;28;20396;-71
2021/12/21 07:22:12;;;;;;;33.83;17.97;;;3.90;99.90;;;3.96;75.00;102576.25;4996298;28;20077;-70
2021/12/21 07:24:41;;;;;;;39.47;18.50;;;3.90;99.90;;;3.81;75.02;102570.25;4994921;28;20042;-70
2021/12/21 07:27:11;;;;;;;31.97;18.20;;;3.80;99.90;;;3.72;75.26;102576.75;4995456;28;20116;-71
2021/12/21 07:29:39;;;;;;;37.75;19.02;;;3.70;99.90;;;3.78;75.40;102574.41;4995623;28;20416;-70
2021/12/21 07:32:08;;;;;;;31.63;17.70;;;3.70;99.90;;;3.83;75.30;102580.78;4995763;28;20050;-70
2021/12/21 07:34:36;;;;;;;34.17;17.53;;;3.80;99.90;;;3.84;75.55;102574.72;4978506;28;20058;-70
2021/12/21 07:37:09;;;;;;;30.63;18.13;;;3.80;99.90;;;3.82;75.16;102576.34;4995546;28;20109;-70
2021/12/21 07:39:39;;;;;;;31.80;18.07;;;3.80;99.90;;;3.59;75.22;102531.63;4995474;28;20101;-70
2021/12/21 07:42:24;;;;;;;36.83;19.23;;;3.80;99.90;;;3.88;75.43;102572.34;4995293;28;20042;-70
2021/12/21 07:44:53;;;;;;;32.55;19.08;;;3.90;99.90;;;3.87;75.33;102567.91;4978160;28;20409;-69
2021/12/21 07:47:23;;;;;;;31.27;17.50;;;3.90;99.90;;;3.92;75.28;102571.66;4995528;28;20041;-70
2021/12/21 07:49:52;;;;;;;36.10;18.67;;;3.90;99.90;;;3.72;75.42;102532.25;4995658;28;20101;-69
2021/12/21 07:52:21;;;;;;;33.53;18.83;;;3.90;99.90;;;3.96;75.07;102575.34;4995036;28;20579;-68
2021/12/21 07:54:50;;;;;;;36.50;19.17;;;3.90;99.90;;;4.02;75.10;102570.41;4977737;28;20050;-68
2021/12/21 07:57:18;;;;;;;38.43;19.00;;;4.00;99.90;;;4.05;74.96;102579.28;4995384;28;20054;-68
2021/12/21 07:59:49;;;;;;;31.13;18.30;;;4.00;99.90;;;3.96;75.24;102560.53;4995012;28;20050;-68
2021/12/21 08:02:17;;;;;;;;;;;4.10;99.90;;;4.27;74.81;102594.34;4995370;28;20046;-68
2021/12/21 08:04:47;;;;;;;37.33;18.90;;;4.30;99.90;;;4.41;75.08;102594.16;4994651;28;19984;-68
2021/12/21 08:07:21;;;;;;;36.45;18.90;;;4.30;99.90;;;4.52;74.49;102592.97;4994608;28;20039;-68
2021/12/21 08:09:53;;;;;;;26.90;17.73;;;4.50;99.90;;;4.68;74.12;102599.84;4994856;28;20551;-68
2021/12/21 08:12:22;;;;;;;31.83;18.00;;;4.60;99.90;;;4.84;73.01;102598.84;4994820;28;20049;-68
2021/12/21 08:14:53;;;;;;;30.03;16.97;;;4.80;99.90;;;5.05;73.06;102602.44;4994792;28;20555;-67
2021/12/21 08:17:21;;;;;;;;;;;4.90;99.90;;;5.36;72.50;102603.88;4994699;28;20038;-69
2021/12/21 08:19:50;;;;;;;30.73;17.77;;;5.30;99.90;;;5.49;71.40;102577.34;4995633;28;20024;-72
2021/12/21 08:22:19;;;;;;;28.00;16.13;;;5.60;99.90;;;5.97;70.84;102631.09;4994598;28;20046;-72
2021/12/21 08:24:47;;;;;;;28.10;16.03;;;5.80;99.90;;;6.19;69.69;102618.00;4994470;28;20105;-68
2021/12/21 08:27:16;;;;;;;27.80;16.67;;;6.10;99.90;;;6.49;68.79;102617.44;4994421;28;20038;-70
2021/12/21 08:29:44;;;;;;;32.93;16.57;;;6.40;99.90;;;6.81;67.82;102617.91;4994500;28;20070;-69
2021/12/21 08:32:14;;;;;;;25.88;15.02;;;6.70;99.90;;;7.08;67.02;102623.31;4994685;28;20050;-69
2021/12/21 08:34:42;;;;;;;31.00;16.75;;;7.00;99.90;;;7.30;66.03;102626.81;4994711;28;20134;-70
2021/12/21 08:37:11;;;;;;;28.95;16.23;;;7.30;99.90;;;7.55;64.76;102631.22;4975953;28;20054;-71
2021/12/21 08:39:40;;;;;;;31.20;15.68;;;7.50;99.90;;;7.81;64.38;102633.06;4994117;28;20104;-71
2021/12/21 08:42:13;;;;;;;29.20;17.63;;;7.80;99.90;;;8.06;63.68;102630.41;4993995;28;20104;-70
2021/12/21 08:44:44;;;;;;;30.33;15.65;;;8.10;99.90;;;8.25;62.85;102628.41;4994328;28;20042;-72
2021/12/21 08:47:14;;;;;;;30.25;15.90;;;8.30;99.90;;;8.45;61.98;102624.69;4994332;28;20047;-71
2021/12/21 08:49:46;;;;;;;29.85;16.85;;;8.50;99.90;;;8.58;60.91;102619.88;4994213;28;20042;-71
2021/12/21 08:52:14;;;;;;;28.30;15.27;;;8.60;99.90;;;8.72;60.38;102628.22;4994290;28;20038;-69
2021/12/21 08:54:43;;;;;;;26.95;15.82;;;8.80;99.90;;;8.84;59.59;102623.31;4976840;28;20078;-69
2021/12/21 08:57:12;;;;;;;33.53;16.88;;;8.90;99.90;;;8.91;59.03;102612.09;4976699;28;20102;-69
2021/12/21 08:59:40;;;;;;;28.13;15.80;;;8.90;99.90;;;9.15;58.96;102611.94;4994183;28;20038;-69
2021/12/21 09:02:09;;;;;;;27.70;15.27;;;9.10;99.90;;;9.30;59.02;102615.91;4994443;28;20050;-69
2021/12/21 09:04:40;;;;;;;28.52;15.90;;;9.30;99.90;;;9.49;57.72;102618.22;4993855;28;20042;-69
2021/12/21 09:07:09;;;;;;;25.95;14.40;;;9.50;99.90;;;9.52;57.46;102620.97;4976878;28;20057;-71
2021/12/21 09:09:37;;;;;;;26.60;16.02;;;9.60;99.90;;;9.50;56.89;102622.66;4994053;28;20511;-71
2021/12/21 09:12:08;;;;;;;23.70;15.02;;;9.50;99.90;;;8.70;57.55;102617.63;4994110;28;20464;-68
2021/12/21 09:14:36;;;;;;;27.63;15.10;;;8.90;99.90;;;7.83;60.02;102615.56;4993774;28;20050;-71
2021/12/21 09:17:07;;;;;;;26.17;15.15;;;7.90;99.90;;;7.88;59.68;102607.78;4993472;28;20130;-71
2021/12/21 09:19:35;;;;;;;26.85;15.98;;;7.90;99.90;;;7.86;60.34;102610.38;4993679;28;20047;-71
2021/12/21 09:22:05;;;;;;;31.52;15.77;;;7.70;99.90;;;8.52;60.29;102618.75;4993704;28;20153;-71
2021/12/21 09:24:34;;;;;;;34.30;15.88;;;8.20;99.90;;;8.93;59.34;102621.84;4993999;28;20042;-71
2021/12/21 09:27:02;;;;;;;29.80;16.05;;;8.70;99.90;;;9.21;58.27;102620.94;4993685;28;20510;-71
2021/12/21 09:29:31;;;;;;;25.25;14.52;;;9.00;99.90;;;9.35;57.50;102622.22;4993308;28;20042;-71
2021/12/21 09:31:59;;;;;;;27.35;15.75;;;9.20;99.90;;;9.38;57.15;102617.03;4993689;28;20038;-71
2021/12/21 09:34:27;;;;;;;26.55;15.30;;;9.30;99.90;;;8.70;57.16;102611.44;4993471;28;20042;-71
2021/12/21 09:36:56;;;;;;;29.88;16.83;;;8.80;99.90;;;7.97;58.57;102614.31;4976146;28;20182;-72
2021/12/21 09:39:26;;;;;;;31.55;16.90;;;8.10;99.90;;;7.65;59.92;102612.28;4993767;28;20038;-71
2021/12/21 09:41:54;;;;;;;26.13;16.13;;;7.70;99.90;;;7.37;60.37;102582.28;4993480;28;20074;-71
2021/12/21 09:44:23;;;;;;;32.42;17.40;;;7.50;99.90;;;7.09;61.13;102594.44;4993558;28;20392;-71
2021/12/21 09:46:51;;;;;;;29.05;16.73;;;7.20;99.90;;;6.67;62.39;102591.91;4993712;28;20093;-72
2021/12/21 09:49:19;;;;;;;29.80;16.90;;;6.70;99.90;;;7.03;63.40;102593.28;4997137;28;20048;-71
2021/12/21 09:51:48;;;;;;;28.60;17.67;;;6.70;99.90;;;7.54;62.95;102592.56;4997585;28;20105;-71
2021/12/21 09:54:18;;;;;;;26.20;16.30;;;7.20;99.90;;;8.01;62.42;102608.25;4997328;28;20092;-71
2021/12/21 09:56:48;;;;;;;25.70;16.08;;;7.60;99.90;;;8.69;60.99;102604.38;4997955;28;20038;-71
2021/12/21 09:59:17;;;;;;;27.38;16.83;;;8.40;99.90;;;9.27;59.36;102614.94;4997218;28;20077;-71
2021/12/21 10:01:46;;;;;;;26.30;15.85;;;9.00;99.90;;;9.14;57.16;102605.75;4997148;28;20069;-71
2021/12/21 10:04:14;;;;;;;26.92;15.63;;;9.20;99.90;;;9.53;57.46;102609.53;4997004;28;20046;-71
2021/12/21 10:06:47;;;;;;;25.60;15.52;;;9.40;99.90;;;9.09;55.37;102583.63;4997362;28;20050;-71
2021/12/21 10:09:18;;;;;;;30.60;16.42;;;9.50;99.90;;;9.78;56.84;102612.00;4996956;28;20039;-71
2021/12/21 10:12:07;;;;;;;27.13;15.65;;;9.60;99.90;;;10.24;55.87;102619.38;4997104;28;20401;-71
2021/12/21 10:14:36;;;;;;;27.42;15.52;;;10.10;99.90;;;10.63;54.79;102623.00;4997006;28;20054;-71
2021/12/21 10:17:07;;;;;;;24.98;15.10;;;10.50;99.90;;;10.88;53.65;102622.69;4997361;28;20131;-71
2021/12/21 10:19:37;;;;;;;27.08;15.05;;;10.80;99.90;;;10.68;52.62;102628.41;4996818;28;20039;-71
2021/12/21 10:22:11;;;;;;;26.37;15.57;;;10.70;99.90;;;9.32;54.18;102602.75;4996456;28;20455;-71
2021/12/21 10:24:51;;;;;;;28.98;15.80;;;9.70;99.90;;;7.59;58.33;102613.81;4997032;28;20309;-71
2021/12/21 10:27:24;;;;;;;25.67;16.08;;;7.90;99.90;;;7.35;60.16;102613.81;4997113;28;20051;-71
2021/12/21 10:29:55;;;;;;;27.13;16.30;;;7.30;99.90;;;7.29;60.38;102617.13;4996421;28;20403;-70
2021/12/21 10:32:28;;;;;;;27.95;16.25;;;7.10;99.90;;;7.23;60.50;102597.56;4996603;28;20503;-71
2021/12/21 10:35:00;;;;;;;30.50;16.48;;;7.10;99.90;;;7.44;61.96;102593.09;4996782;28;20054;-70
2021/12/21 10:37:32;;;;;;;26.67;15.68;;;7.10;99.90;;;7.91;60.61;102593.00;4996788;28;20101;-70
2021/12/21 10:40:12;;;;;;;26.02;15.60;;;7.60;99.90;;;7.14;61.07;102581.47;4996792;28;20046;-71
2021/12/21 10:42:55;;;;;;;29.52;15.52;;;7.20;99.90;;;7.31;60.86;102569.81;4996485;28;20105;-70
2021/12/21 10:45:31;;;;;;;25.77;15.10;;;7.30;99.90;;;6.89;62.35;102581.38;4996512;28;20042;-71
2021/12/21 10:48:02;;;;;;;29.13;15.52;;;6.90;99.90;;;7.32;61.11;102579.47;4996720;28;20038;-71
2021/12/21 10:50:34;;;;;;;26.15;14.70;;;7.20;99.90;;;6.45;63.07;102566.50;4996752;28;20113;-71
2021/12/21 10:53:05;;;;;;;25.70;16.00;;;6.40;99.90;;;6.67;63.53;102584.00;4996365;28;20068;-71
2021/12/21 10:55:37;;;;;;;30.30;16.63;;;6.40;99.90;;;6.56;63.02;102573.09;4996555;28;20050;-70
2021/12/21 10:58:15;;;;;;;26.42;15.93;;;6.40;99.90;;;5.97;65.01;102578.56;4996208;28;20077;-70
2021/12/21 11:00:48;;;;;;;28.10;14.63;;;5.90;99.90;;;6.28;64.80;102575.44;4995804;28;20062;-70
2021/12/21 11:03:18;;;;;;;24.23;15.57;;;6.00;99.90;;;6.34;65.62;102571.34;4996599;28;20065;-70
2021/12/21 11:05:47;;;;;;;24.20;15.07;;;6.10;99.90;;;6.61;64.32;102576.78;4996252;28;20408;-70